ADDS METAR Data INFO
IDs: Format: Raw Decoded Include TAF

Data at: 1951 UTC 14 Aug 2018

KDYT 141935Z AUTO 07003KT 10SM CLR 24/17 A2994 RMK AO2
KDYT 141915Z AUTO 00000KT 10SM CLR 24/17 A2994 RMK AO2
KDYT 141855Z AUTO 00000KT 10SM CLR 24/17 A2994 RMK AO2
KDYT 141835Z AUTO 00000KT 10SM CLR 23/18 A2994 RMK AO2
KDYT 141815Z AUTO 02003KT 10SM CLR 23/18 A2994 RMK AO2
KDYT 141755Z AUTO 00000KT 10SM SCT047 SCT075 22/17 A2995 RMK AO2
KDYT 141735Z AUTO 00000KT 10SM SCT047 22/18 A2995 RMK AO2
KDYT 141716Z AUTO 00000KT 10SM SCT045 23/18 A2994 RMK AO2
KDYT 141655Z AUTO 00000KT 10SM BKN043 22/18 A2994 RMK AO2
KDYT 141635Z AUTO 00000KT 10SM OVC039 22/17 A2994 RMK AO2
KDYT 141615Z AUTO 00000KT 10SM OVC039 22/18 A2995 RMK AO2
KDYT 141555Z AUTO 00000KT 10SM OVC041 23/17 A2995 RMK AO2
KDYT 141535Z AUTO 00000KT 10SM OVC039 22/17 A2994 RMK AO2
KDYT 141515Z AUTO 00000KT 10SM OVC039 23/17 A2994 RMK AO2
KDYT 141455Z AUTO 35003KT 10SM OVC039 22/18 A2995 RMK AO2
KDYT 141435Z AUTO 34005KT 10SM OVC041 22/18 A2994 RMK AO2
KDYT 141415Z AUTO 34004KT 10SM OVC039 22/18 A2994 RMK AO2
KDYT 141355Z AUTO 34003KT 10SM BKN039 BKN080 22/18 A2993 RMK AO2
KDYT 141335Z AUTO 35005KT 10SM SCT080 22/18 A2992 RMK AO2
KDYT 141315Z AUTO 35008KT 10SM CLR 22/19 A2992 RMK AO2
KDYT 141255Z AUTO 01007KT 10SM CLR 21/18 A2990 RMK AO2
KDYT 141235Z AUTO 05004KT 10SM CLR 21/18 A2990 RMK AO2
KDYT 141215Z AUTO 03004KT 10SM CLR 21/18 A2990 RMK AO2
KDYT 141155Z AUTO 34005KT 10SM CLR 22/18 A2991 RMK AO2
KDYT 141135Z AUTO 33007KT 10SM CLR 22/18 A2991 RMK AO2
KDYT 141115Z AUTO 32005KT 10SM CLR 22/19 A2992 RMK AO2
KDYT 141055Z AUTO 00000KT 10SM CLR 22/20 A2991 RMK AO2
KDYT 141035Z AUTO 00000KT 10SM CLR 21/19 A2990 RMK AO2
KDYT 141015Z AUTO 00000KT 10SM CLR 22/19 A2990 RMK AO2
KDYT 140955Z AUTO 00000KT 10SM CLR 23/19 A2991 RMK AO2
KDYT 140935Z AUTO 32004KT 10SM CLR 23/20 A2991 RMK AO2
KDYT 140916Z AUTO 35007KT 10SM CLR 23/20 A2990 RMK AO2
KDYT 140855Z AUTO 33006KT 10SM SCT027 24/22 A2989 RMK AO2
KDYT 140835Z AUTO 26007KT 231V291 10SM SCT026 SCT100 24/22 A2988 RMK AO2
KDYT 140815Z AUTO 25009KT 10SM SCT036 SCT055 BKN065 25/22 A2988 RMK AO2
KDYT 140755Z AUTO 26008KT 10SM SCT055 24/21 A2989 RMK AO2
KDYT 140735Z AUTO 25008KT 10SM SCT055 24/21 A2988 RMK AO2
KDYT 140715Z AUTO 23009KT 10SM SCT065 SCT075 24/21 A2988 RMK AO2
KDYT 140656Z AUTO 24008KT 10SM BKN075 BKN090 24/21 A2988 RMK AO2
KDYT 140635Z AUTO 23007KT 10SM SCT075 BKN090 24/21 A2989 RMK AO2
KDYT 140615Z AUTO 23008KT 10SM SCT075 24/21 A2989 RMK AO2
KDYT 140556Z AUTO 24008KT 10SM SCT075 24/21 A2989 RMK AO2
KDYT 140535Z AUTO 24008KT 10SM CLR 24/21 A2989 RMK AO2
KDYT 140515Z AUTO 24008KT 10SM CLR 24/21 A2989 RMK AO2
KDYT 140456Z AUTO 23008KT 10SM CLR 24/21 A2989 RMK AO2
KDYT 140435Z AUTO 23008KT 10SM CLR 24/21 A2989 RMK AO2
KDYT 140415Z AUTO 24007KT 10SM SCT075 25/21 A2989 RMK AO2
KDYT 140355Z AUTO 24008KT 10SM SCT075 25/21 A2989 RMK AO2
KDYT 140335Z AUTO 22007KT 10SM CLR 25/21 A2989 RMK AO2
KDYT 140315Z AUTO 22008KT 10SM CLR 26/21 A2989 RMK AO2
KDYT 140255Z AUTO 22008KT 10SM SCT075 26/21 A2990 RMK AO2
KDYT 140235Z AUTO 22007KT 10SM SCT075 26/21 A2990 RMK AO2
KDYT 140215Z AUTO 22006KT 10SM CLR 27/21 A2990 RMK AO2
KDYT 140155Z AUTO 21007KT 10SM CLR 27/22 A2989 RMK AO2
KDYT 140135Z AUTO 21005KT 10SM CLR 28/22 A2988 RMK AO2
KDYT 140115Z AUTO 22005KT 10SM CLR 28/22 A2988 RMK AO2
KDYT 140055Z AUTO 22006KT 10SM CLR 29/22 A2988 RMK AO2
KDYT 140035Z AUTO 22007KT 10SM CLR 30/21 A2988 RMK AO2
KDYT 140015Z AUTO 22009KT 10SM CLR 31/21 A2987 RMK AO2
KDYT 132355Z AUTO 23013KT 10SM CLR 31/20 A2987 RMK AO2
KDYT 132335Z AUTO 23014G18KT 10SM CLR 32/21 A2988 RMK AO2
KDYT 132315Z AUTO 23013KT 10SM CLR 32/20 A2988 RMK AO2
KDYT 132255Z AUTO 23015G23KT 10SM CLR 32/20 A2988 RMK AO2
KDYT 132235Z AUTO 22016G20KT 10SM SCT060 32/21 A2988 RMK AO2
KDYT 132215Z AUTO 23013G22KT 10SM CLR 32/21 A2989 RMK AO2
KDYT 132155Z AUTO 24017KT 10SM SCT060 32/21 A2989 RMK AO2
KDYT 132135Z AUTO 23014G19KT 10SM BKN060 32/21 A2989 RMK AO2
KDYT 132115Z AUTO 24016G23KT 10SM SCT050 32/21 A2990 RMK AO2
KDYT 132055Z AUTO 23016G20KT 10SM SCT050 33/21 A2990 RMK AO2
KDYT 132035Z AUTO 23014G19KT 10SM SCT050 32/21 A2990 RMK AO2
KDYT 132015Z AUTO 23013G20KT 10SM SCT050 32/21 A2990 RMK AO2
KDYT 131955Z AUTO 23015G21KT 10SM CLR 32/21 A2991 RMK AO2
KDYT 131935Z AUTO 23015G20KT 10SM SCT050 32/21 A2991 RMK AO2
KDYT 131915Z AUTO 23015G18KT 10SM SCT050 32/21 A2992 RMK AO2
KDYT 131855Z AUTO 24010G19KT 10SM CLR 32/21 A2993 RMK AO2
KDYT 131835Z AUTO 22018G21KT 10SM CLR 32/21 A2993 RMK AO2
KDYT 131816Z AUTO 21013KT 10SM CLR 32/21 A2993 RMK AO2
KDYT 131755Z AUTO 22016KT 10SM CLR 31/21 A2994 RMK AO2
KDYT 131735Z AUTO 23013G19KT 10SM CLR 31/21 A2994 RMK AO2
KDYT 131715Z AUTO 23015G19KT 10SM CLR 31/22 A2995 RMK AO2
KDYT 131655Z AUTO 24013G17KT 10SM CLR 30/21 A2995 RMK AO2
KDYT 131635Z AUTO 22014G18KT 10SM CLR 29/22 A2996 RMK AO2
KDYT 131615Z AUTO 23013G18KT 10SM CLR 29/22 A2997 RMK AO2
KDYT 131555Z AUTO 23011KT 10SM CLR 28/22 A2997 RMK AO2
KDYT 131535Z AUTO 23009G14KT 10SM CLR 28/22 A2998 RMK AO2
KDYT 131515Z AUTO 23010KT 10SM CLR 27/22 A2999 RMK AO2
KDYT 131455Z AUTO 24007KT 10SM CLR 26/22 A3000 RMK AO2
KDYT 131435Z AUTO 24007KT 10SM CLR 25/22 A3000 RMK AO2
KDYT 131415Z AUTO 22007KT 10SM CLR 24/21 A3001 RMK AO2
KDYT 131355Z AUTO 24005KT 10SM CLR 23/21 A3002 RMK AO2
KDYT 131335Z AUTO 24006KT 10SM CLR 23/21 A3002 RMK AO2
KDYT 131315Z AUTO 24007KT 10SM CLR 22/20 A3003 RMK AO2
KDYT 131255Z AUTO 23005KT 10SM CLR 22/20 A3003 RMK AO2
KDYT 131235Z AUTO 24003KT 10SM CLR 21/19 A3003 RMK AO2
KDYT 131215Z AUTO 23004KT 10SM CLR 21/19 A3003 RMK AO2
KDYT 131155Z AUTO 25005KT 10SM CLR 21/19 A3003 RMK AO2
KDYT 131135Z AUTO 23005KT 10SM CLR 21/19 A3003 RMK AO2
KDYT 131115Z AUTO 23006KT 10SM CLR 21/19 A3003 RMK AO2
KDYT 131055Z AUTO 24004KT 10SM CLR 21/19 A3003 RMK AO2
KDYT 131035Z AUTO 23003KT 10SM CLR 20/19 A3003 RMK AO2
KDYT 131015Z AUTO 23003KT 10SM CLR 21/19 A3003 RMK AO2
KDYT 130955Z AUTO 22003KT 10SM CLR 19/19 A3003 RMK AO2
KDYT 130935Z AUTO 00000KT 10SM CLR 19/19 A3003 RMK AO2
KDYT 130915Z AUTO 00000KT 7SM CLR 19/18 A3003 RMK AO2
KDYT 130855Z AUTO 00000KT 5SM BR CLR 20/19 A3003 RMK AO2
KDYT 130835Z AUTO 00000KT 4SM BR CLR 20/19 A3003 RMK AO2
KDYT 130815Z AUTO 00000KT 1 1/2SM BR VV007 21/19 A3002 RMK AO2 VIS 1/2V5
KDYT 130755Z AUTO 00000KT 2 1/2SM BR CLR 20/19 A3003 RMK AO2